Time;durP1;ratioP1;P1;durP2;ratioP2;P2;SDS_P1;SDS_P2;PMS_P1;PMS_P2;Temp;Humidity;BMP_temperature;BMP_pressure;BME280_temperature;BME280_humidity;BME280_pressure;Samples;Min_cycle;Max_cycle;Signal;HPM_P1;HPM_P2
2021/04/13 00:00:01;;;;;;;0.88;0.75;;;6.60;73.40;;;;;;5073609;28;20052;-60
2021/04/13 00:02:39;;;;;;;0.40;0.40;;;6.70;73.50;;;;;;5073867;28;20051;-60
2021/04/13 00:05:45;;;;;;;5.20;1.25;;;6.60;73.40;;;;;;5073285;28;20456;-60
2021/04/13 00:08:21;;;;;;;0.52;0.38;;;6.60;73.50;;;;;;4982254;28;20475;-60
2021/04/13 00:10:58;;;;;;;0.73;0.60;;;6.60;73.50;;;;;;4991398;28;20386;-60
2021/04/13 00:13:24;;;;;;;1.65;0.60;;;6.60;73.50;;;;;;5040727;28;20032;-60
2021/04/13 00:15:55;;;;;;;2.75;0.75;;;6.60;73.50;;;;;;5073760;28;20067;-60
2021/04/13 00:18:28;;;;;;;1.38;1.30;;;6.60;73.50;;;;;;5073227;28;20028;-60
2021/04/13 00:21:05;;;;;;;2.08;0.70;;;6.60;73.40;;;;;;5072634;28;20086;-61
2021/04/13 00:23:31;;;;;;;4.40;0.90;;;6.50;73.30;;;;;;5073614;28;20420;-60
2021/04/13 00:26:01;;;;;;;0.60;0.60;;;6.60;73.30;;;;;;5072785;28;20035;-60
2021/04/13 00:28:30;;;;;;;3.20;0.80;;;6.50;73.20;;;;;;5072368;28;20086;-60
2021/04/13 00:31:01;;;;;;;0.40;0.40;;;6.50;73.10;;;;;;5073666;28;20029;-60
2021/04/13 00:33:33;;;;;;;2.80;0.90;;;6.50;73.10;;;;;;5072790;28;20030;-60
2021/04/13 00:36:09;;;;;;;2.38;1.13;;;6.50;73.10;;;;;;5073280;28;20037;-60
2021/04/13 00:38:54;;;;;;;4.78;1.45;;;6.50;73.20;;;;;;5073374;28;20036;-60
2021/04/13 00:41:21;;;;;;;5.35;1.30;;;6.50;73.20;;;;;;5072134;28;20127;-60
2021/04/13 00:43:54;;;;;;;5.80;1.27;;;6.50;73.10;;;;;;5073275;28;20025;-60
2021/04/13 00:46:25;;;;;;;11.40;1.43;;;6.60;73.30;;;;;;5072415;28;20090;-60
2021/04/13 00:48:53;;;;;;;2.50;0.90;;;6.60;73.50;;;;;;5073322;28;20029;-60
2021/04/13 00:51:38;;;;;;;3.75;1.10;;;6.60;73.40;;;;;;5055246;28;20033;-60
2021/04/13 00:54:09;;;;;;;1.55;0.55;;;6.60;73.30;;;;;;5072300;28;20029;-60
2021/04/13 00:56:36;;;;;;;1.17;0.82;;;6.60;72.80;;;;;;5073007;28;20033;-60
2021/04/13 00:59:10;;;;;;;1.63;0.98;;;6.60;72.60;;;;;;5072763;28;20044;-60
2021/04/13 01:01:39;;;;;;;0.50;0.50;;;6.60;72.60;;;;;;5072426;28;20032;-60
2021/04/13 01:04:20;;;;;;;12.50;2.47;;;6.50;72.40;;;;;;5072941;28;20035;-60
2021/04/13 01:06:59;;;;;;;0.40;0.40;;;6.60;72.50;;;;;;5072922;28;20036;-60
2021/04/13 01:09:26;;;;;;;0.50;0.50;;;6.50;72.40;;;;;;5071918;28;20086;-60
2021/04/13 01:12:08;;;;;;;1.08;0.77;;;6.40;73.00;;;;;;5070201;28;20032;-60
2021/04/13 01:14:34;;;;;;;0.50;0.50;;;6.40;72.50;;;;;;5071422;28;20491;-60
2021/04/13 01:17:03;;;;;;;0.40;0.40;;;6.40;72.60;;;;;;5047983;28;20029;-60
2021/04/13 01:19:41;;;;;;;5.72;1.38;;;6.30;72.70;;;;;;5065875;28;20028;-60
2021/04/13 01:22:24;;;;;;;2.85;1.70;;;6.30;72.80;;;;;;5071765;28;20480;-60
2021/04/13 01:25:03;;;;;;;1.25;0.77;;;6.20;72.80;;;;;;5072925;28;20123;-60
2021/04/13 01:27:30;;;;;;;3.25;0.80;;;6.20;72.90;;;;;;5072361;28;20038;-60
2021/04/13 01:29:57;;;;;;;6.55;0.90;;;6.20;72.90;;;;;;5071903;28;20025;-60
2021/04/13 01:32:25;;;;;;;3.08;1.30;;;6.20;73.00;;;;;;5072835;28;20349;-60
2021/04/13 01:35:04;;;;;;;1.95;0.80;;;6.20;73.00;;;;;;5072466;28;20577;-60
2021/04/13 01:37:58;;;;;;;2.42;1.10;;;6.10;73.10;;;;;;5072003;28;20028;-61
2021/04/13 01:40:32;;;;;;;3.40;1.40;;;6.10;73.10;;;;;;5072463;28;20417;-60
2021/04/13 01:43:01;;;;;;;6.63;1.20;;;6.20;73.10;;;;;;5071833;28;20034;-60
2021/04/13 01:45:30;;;;;;;4.47;1.27;;;6.10;73.10;;;;;;5072196;28;20025;-60
2021/04/13 01:47:57;;;;;;;3.67;1.25;;;6.20;73.20;;;;;;5072164;28;20036;-60
2021/04/13 01:50:40;;;;;;;1.67;0.82;;;6.10;73.10;;;;;;5071749;28;20037;-60
2021/04/13 01:53:10;;;;;;;3.28;0.65;;;6.10;73.10;;;;;;5072161;28;20029;-60
2021/04/13 01:55:38;;;;;;;4.55;1.25;;;6.10;73.00;;;;;;5072239;28;20084;-60
2021/04/13 01:58:13;;;;;;;0.80;0.80;;;6.10;73.00;;;;;;5071592;28;20052;-60
2021/04/13 02:00:46;;;;;;;2.60;1.17;;;6.10;73.00;;;;;;5072301;28;20484;-60
2021/04/13 02:03:14;;;;;;;2.58;0.90;;;6.10;72.90;;;;;;5072250;28;20036;-61
2021/04/13 02:05:45;;;;;;;3.40;0.90;;;6.10;72.80;;;;;;5071443;28;20066;-60
2021/04/13 02:08:26;;;;;;;0.52;0.52;;;6.10;72.90;;;;;;5071994;28;20075;-60
2021/04/13 02:11:05;;;;;;;6.45;1.60;;;6.10;72.90;;;;;;5071639;28;20473;-60
2021/04/13 02:13:34;;;;;;;8.68;1.08;;;6.00;72.80;;;;;;5072110;28;20060;-60
2021/04/13 02:16:38;;;;;;;0.47;0.47;;;6.10;72.90;;;;;;5071966;28;20123;-60
2021/04/13 02:19:08;;;;;;;0.50;0.50;;;6.00;72.80;;;;;;5057043;28;20035;-60
2021/04/13 02:21:40;;;;;;;0.40;0.40;;;6.00;72.80;;;;;;5072148;28;20028;-60
2021/04/13 02:24:13;;;;;;;1.27;0.95;;;5.90;72.70;;;;;;5071853;28;20112;-60
2021/04/13 02:26:46;;;;;;;0.40;0.40;;;5.90;72.80;;;;;;5071369;28;20472;-60
2021/04/13 02:29:14;;;;;;;3.30;0.82;;;5.90;73.00;;;;;;5072067;28;20274;-60
2021/04/13 02:31:48;;;;;;;3.90;1.42;;;5.80;73.00;;;;;;5072131;28;20047;-60
2021/04/13 02:34:23;;;;;;;3.40;0.98;;;5.80;73.20;;;;;;5073771;28;20059;-60
2021/04/13 02:36:53;;;;;;;1.20;0.80;;;5.80;73.40;;;;;;5075711;28;20028;-60
2021/04/13 02:39:22;;;;;;;1.23;0.60;;;5.70;73.50;;;;;;5074981;28;20021;-60
2021/04/13 02:42:12;;;;;;;8.10;1.65;;;5.70;73.70;;;;;;5075715;28;20082;-60
2021/04/13 02:44:38;;;;;;;1.92;0.85;;;5.60;73.90;;;;;;5075468;28;20064;-60
2021/04/13 02:47:10;;;;;;;0.98;0.88;;;5.60;74.00;;;;;;5074877;28;20028;-60
2021/04/13 02:49:40;;;;;;;;;;;5.60;74.20;;;;;;5075987;28;20028;-60
2021/04/13 02:52:23;;;;;;;5.60;2.05;;;5.50;74.30;;;;;;5075599;28;19919;-60
2021/04/13 02:55:02;;;;;;;1.55;1.13;;;5.50;74.40;;;;;;5057140;28;20086;-60
2021/04/13 02:57:37;;;;;;;0.60;0.60;;;5.50;74.70;;;;;;5075053;28;20072;-60
2021/04/13 03:00:08;;;;;;;3.03;1.00;;;5.40;74.80;;;;;;5074820;28;20042;-60
2021/04/13 03:02:36;;;;;;;0.50;0.50;;;5.40;74.90;;;;;;5075247;28;20472;-60
2021/04/13 03:05:03;;;;;;;1.88;1.30;;;5.40;75.00;;;;;;5075231;28;20028;-60
2021/04/13 03:07:30;;;;;;;0.90;0.85;;;5.30;75.00;;;;;;5074362;28;20491;-60
2021/04/13 03:10:12;;;;;;;1.00;0.90;;;5.30;75.20;;;;;;5074800;28;20096;-60
2021/04/13 03:12:42;;;;;;;4.80;1.90;;;5.40;75.30;;;;;;5075221;28;20064;-60
2021/04/13 03:15:13;;;;;;;0.50;0.50;;;5.30;75.20;;;;;;5074366;28;20036;-60
2021/04/13 03:17:45;;;;;;;2.55;1.08;;;5.30;75.30;;;;;;5074964;28;20476;-60
2021/04/13 03:20:14;;;;;;;10.70;1.48;;;5.30;75.30;;;;;;5040007;28;20514;-60
2021/04/13 03:22:41;;;;;;;1.40;0.77;;;5.30;75.40;;;;;;5074102;28;20051;-60
2021/04/13 03:25:13;;;;;;;2.08;0.88;;;5.30;75.50;;;;;;5074790;28;20021;-60
2021/04/13 03:27:40;;;;;;;0.82;0.75;;;5.30;75.70;;;;;;5074806;28;20123;-60
2021/04/13 03:30:31;;;;;;;0.40;0.40;;;5.20;75.70;;;;;;5074148;28;20035;-60
2021/04/13 03:32:56;;;;;;;6.70;1.00;;;5.20;75.80;;;;;;5061730;28;20491;-60
2021/04/13 03:35:27;;;;;;;8.30;1.50;;;5.20;75.70;;;;;;5074115;28;20036;-60
2021/04/13 03:37:56;;;;;;;3.13;1.23;;;5.20;75.70;;;;;;5073895;28;20043;-60
2021/04/13 03:40:25;;;;;;;0.93;0.80;;;5.30;75.60;;;;;;5074558;28;20029;-60
2021/04/13 03:42:59;;;;;;;10.20;1.27;;;5.30;75.50;;;;;;5073752;28;20032;-60
2021/04/13 03:45:26;;;;;;;2.15;0.88;;;5.30;75.50;;;;;;5074192;28;20075;-60
2021/04/13 03:47:52;;;;;;;0.77;0.77;;;5.30;75.30;;;;;;5073583;28;20501;-60
2021/04/13 03:50:24;;;;;;;2.45;0.82;;;5.40;75.30;;;;;;5073805;28;20414;-60
2021/04/13 03:53:02;;;;;;;5.57;0.63;;;5.40;75.20;;;;;;5074202;28;20100;-60
2021/04/13 03:55:27;;;;;;;3.95;1.13;;;5.40;75.10;;;;;;5074195;28;20044;-60
2021/04/13 03:57:53;;;;;;;0.60;0.60;;;5.40;74.80;;;;;;5072348;28;20048;-60
2021/04/13 04:00:26;;;;;;;1.00;0.70;;;5.40;74.80;;;;;;5073580;28;20028;-60
2021/04/13 04:02:52;;;;;;;2.90;0.63;;;5.30;74.90;;;;;;5073571;28;20024;-60
2021/04/13 04:05:25;;;;;;;13.27;1.30;;;5.30;75.10;;;;;;5072925;28;20061;-60
2021/04/13 04:08:04;;;;;;;1.38;1.27;;;5.20;75.20;;;;;;5072930;28;20387;-60
2021/04/13 04:10:45;;;;;;;1.80;1.35;;;5.30;75.40;;;;;;5071012;28;20028;-60
2021/04/13 04:13:13;;;;;;;9.70;1.92;;;5.30;75.40;;;;;;5073535;28;20048;-60
2021/04/13 04:15:49;;;;;;;2.28;0.90;;;5.20;75.60;;;;;;5073314;28;20041;-60
2021/04/13 04:18:30;;;;;;;8.75;1.48;;;5.20;75.70;;;;;;5072589;28;20020;-60
2021/04/13 04:20:58;;;;;;;6.15;1.70;;;5.20;75.70;;;;;;5072398;28;20034;-60
2021/04/13 04:23:30;;;;;;;2.58;1.00;;;5.20;75.60;;;;;;5070775;28;20028;-61
2021/04/13 04:26:06;;;;;;;2.42;1.10;;;5.20;75.40;;;;;;5072453;28;20082;-60
2021/04/13 04:28:34;;;;;;;3.78;0.88;;;5.30;75.30;;;;;;5073302;28;20028;-60
2021/04/13 04:31:36;;;;;;;7.95;0.80;;;5.30;75.20;;;;;;5073092;28;20047;-60
2021/04/13 04:34:22;;;;;;;2.47;0.82;;;5.30;75.20;;;;;;5073362;28;20036;-60
2021/04/13 04:36:50;;;;;;;4.43;0.75;;;5.30;75.20;;;;;;5073184;28;20456;-60
2021/04/13 04:39:26;;;;;;;0.60;0.60;;;5.30;75.20;;;;;;5072601;28;20473;-60
2021/04/13 04:41:55;;;;;;;1.45;0.88;;;5.30;75.20;;;;;;5073206;28;20032;-60
2021/04/13 04:44:25;;;;;;;0.52;0.50;;;5.30;75.10;;;;;;5072958;28;20479;-60
2021/04/13 04:46:58;;;;;;;1.83;1.00;;;5.30;75.10;;;;;;5072658;28;20028;-60
2021/04/13 04:49:24;;;;;;;1.25;0.70;;;5.30;75.00;;;;;;5073015;28;20042;-60
2021/04/13 04:51:52;;;;;;;1.33;0.98;;;5.40;75.00;;;;;;5073052;28;20029;-60
2021/04/13 04:54:20;;;;;;;7.30;1.40;;;5.40;75.00;;;;;;5071987;28;20036;-60
2021/04/13 04:56:46;;;;;;;6.35;1.45;;;5.40;74.90;;;;;;5072538;28;20036;-61
2021/04/13 04:59:12;;;;;;;3.33;0.93;;;5.40;74.90;;;;;;5073185;28;20293;-60
2021/04/13 05:01:38;;;;;;;14.68;1.83;;;5.40;74.90;;;;;;5071960;28;20111;-60
2021/04/13 05:04:03;;;;;;;0.63;0.55;;;5.40;74.90;;;;;;5072744;28;20025;-60
2021/04/13 05:06:32;;;;;;;1.85;0.65;;;5.40;74.80;;;;;;5072117;28;20031;-61
2021/04/13 05:09:01;;;;;;;1.95;0.90;;;5.40;74.60;;;;;;5072620;28;20052;-60
2021/04/13 05:11:27;;;;;;;3.13;0.82;;;5.40;74.60;;;;;;5072457;28;20032;-60
2021/04/13 05:13:53;;;;;;;4.20;2.17;;;5.40;74.70;;;;;;5071609;28;20062;-60
2021/04/13 05:16:19;;;;;;;0.50;0.50;;;5.40;74.80;;;;;;5072208;28;20041;-65
2021/04/13 05:18:45;;;;;;;19.42;1.35;;;5.40;74.90;;;;;;5072682;28;20036;-61
2021/04/13 05:21:11;;;;;;;2.72;1.00;;;5.40;75.00;;;;;;5071903;28;20529;-61
2021/04/13 05:23:39;;;;;;;2.55;0.70;;;5.30;75.10;;;;;;5072415;28;20024;-62
2021/04/13 05:26:06;;;;;;;1.42;1.00;;;5.40;75.20;;;;;;5071387;28;20028;-60
2021/04/13 05:28:33;;;;;;;2.95;1.25;;;5.40;75.10;;;;;;5070022;28;20078;-60
2021/04/13 05:30:59;;;;;;;5.00;0.98;;;5.40;75.10;;;;;;5040933;28;20024;-59
2021/04/13 05:33:25;;;;;;;0.65;0.65;;;5.40;75.10;;;;;;5056559;28;20434;-60
2021/04/13 05:35:51;;;;;;;7.82;1.20;;;5.40;75.00;;;;;;5056442;28;20062;-59
2021/04/13 05:38:21;;;;;;;5.95;1.75;;;5.40;75.20;;;;;;5053105;28;20025;-60
2021/04/13 05:40:48;;;;;;;2.97;0.85;;;5.40;75.40;;;;;;5053892;28;20037;-60
2021/04/13 05:43:16;;;;;;;7.20;1.77;;;5.40;75.50;;;;;;5051678;28;20419;-59
2021/04/13 05:45:45;;;;;;;15.95;1.45;;;5.40;75.90;;;;;;5050861;28;20804;-58
2021/04/13 05:48:11;;;;;;;2.25;0.63;;;5.40;76.00;;;;;;5052955;28;20033;-59
2021/04/13 05:50:39;;;;;;;0.60;0.60;;;5.40;76.00;;;;;;5050644;28;20490;-60
2021/04/13 05:53:06;;;;;;;2.35;1.00;;;5.40;76.70;;;;;;5053577;28;20025;-59
2021/04/13 05:55:32;;;;;;;3.83;1.27;;;5.40;76.10;;;;;;5056209;28;20123;-59
2021/04/13 05:58:01;;;;;;;6.75;1.67;;;5.40;76.40;;;;;;5054358;28;20064;-60
2021/04/13 06:00:28;;;;;;;4.32;1.95;;;5.40;76.90;;;;;;5052585;28;20763;-59
2021/04/13 06:02:54;;;;;;;3.92;0.88;;;5.30;77.40;;;;;;5051448;28;20036;-60
2021/04/13 06:05:23;;;;;;;1.10;0.80;;;5.30;78.10;;;;;;5051956;28;20028;-70
2021/04/13 06:07:49;;;;;;;0.50;0.50;;;5.20;78.00;;;;;;5051764;28;20424;-63
2021/04/13 06:10:15;;;;;;;0.80;0.80;;;5.20;78.30;;;;;;5059320;28;20518;-61
2021/04/13 06:12:41;;;;;;;2.90;1.70;;;5.20;78.20;;;;;;5058573;28;20024;-61
2021/04/13 06:15:09;;;;;;;6.70;1.15;;;5.30;78.30;;;;;;5063648;28;20082;-61
2021/04/13 06:17:35;;;;;;;1.15;1.05;;;5.30;78.20;;;;;;5062740;28;20032;-60
2021/04/13 06:20:00;;;;;;;3.33;1.58;;;5.30;78.10;;;;;;5062897;28;20043;-61
2021/04/13 06:22:35;;;;;;;2.95;1.33;;;5.30;78.30;;;;;;5066092;28;20028;-61
2021/04/13 06:25:01;;;;;;;7.80;1.65;;;5.30;78.50;;;;;;5066022;28;20115;-60
2021/04/13 06:27:27;;;;;;;0.98;0.77;;;5.30;78.70;;;;;;5066043;28;20112;-60
2021/04/13 06:29:52;;;;;;;14.45;1.80;;;5.30;78.90;;;;;;5054003;28;20033;-60
2021/04/13 06:32:18;;;;;;;8.07;1.58;;;5.40;80.30;;;;;;5062636;28;20028;-60
2021/04/13 06:34:44;;;;;;;16.33;2.05;;;5.40;80.00;;;;;;5074560;28;20086;-60
2021/04/13 06:37:11;;;;;;;11.73;1.80;;;5.50;81.60;;;;;;5073451;28;20115;-61
2021/04/13 06:39:38;;;;;;;10.00;1.02;;;5.50;82.10;;;;;;5073769;28;20028;-63
2021/04/13 06:42:39;;;;;;;5.00;1.30;;;5.60;81.00;;;;;;5074830;28;20025;-60
2021/04/13 06:45:22;;;;;;;9.25;1.30;;;5.70;80.40;;;;;;5073836;28;20017;-60
2021/04/13 06:48:16;;;;;;;5.75;0.98;;;5.70;79.70;;;;;;5074973;28;20028;-60
2021/04/13 06:50:57;;;;;;;1.05;0.60;;;5.80;79.40;;;;;;5075483;28;20067;-60
2021/04/13 06:53:52;;;;;;;1.48;0.90;;;5.90;79.30;;;;;;5073301;28;20028;-60
2021/04/13 06:56:24;;;;;;;5.25;1.13;;;5.90;78.80;;;;;;5075090;28;20032;-60
2021/04/13 06:59:01;;;;;;;0.95;0.73;;;6.00;78.60;;;;;;5075307;28;20496;-60
2021/04/13 07:01:55;;;;;;;6.55;1.10;;;6.00;78.30;;;;;;5074909;28;20051;-59
2021/04/13 07:04:28;;;;;;;;;;;6.10;78.30;;;;;;5075766;28;20039;-60
2021/04/13 07:07:00;;;;;;;3.20;1.00;;;6.10;77.90;;;;;;5072142;28;20389;-60
2021/04/13 07:09:37;;;;;;;8.48;1.50;;;6.10;77.70;;;;;;5075041;28;20037;-60
2021/04/13 07:12:28;;;;;;;7.57;1.50;;;6.20;78.00;;;;;;5073033;28;20028;-60
2021/04/13 07:15:23;;;;;;;13.80;1.63;;;6.20;78.10;;;;;;5074312;28;20048;-60
2021/04/13 07:18:03;;;;;;;3.15;0.80;;;6.20;78.30;;;;;;5063773;28;20045;-60
2021/04/13 07:20:45;;;;;;;7.18;1.25;;;6.30;78.20;;;;;;5070847;28;20530;-60
2021/04/13 07:23:19;;;;;;;6.50;1.10;;;6.30;78.20;;;;;;5075049;28;20040;-60
2021/04/13 07:25:59;;;;;;;3.40;1.35;;;6.40;78.40;;;;;;5074492;28;20033;-60
2021/04/13 07:28:36;;;;;;;8.02;1.80;;;6.40;79.30;;;;;;5074209;28;20037;-60
2021/04/13 07:31:05;;;;;;;11.50;2.00;;;6.50;78.70;;;;;;5074935;28;20024;-60
2021/04/13 07:33:32;;;;;;;6.47;1.15;;;6.60;78.80;;;;;;5074890;28;20079;-60
2021/04/13 07:36:03;;;;;;;9.82;1.98;;;6.60;79.10;;;;;;5074013;28;20434;-60
2021/04/13 07:38:40;;;;;;;9.05;1.40;;;6.70;80.10;;;;;;5074709;28;20447;-60
2021/04/13 07:41:11;;;;;;;7.82;1.30;;;6.70;79.40;;;;;;5074349;28;20039;-60
2021/04/13 07:43:57;;;;;;;6.90;1.92;;;6.70;78.90;;;;;;5074322;28;20032;-60
2021/04/13 07:46:46;;;;;;;9.25;1.60;;;6.80;79.30;;;;;;5074397;28;20029;-60
2021/04/13 07:49:15;;;;;;;5.95;1.08;;;6.80;79.30;;;;;;5073596;28;20037;-60
2021/04/13 07:52:01;;;;;;;6.50;1.20;;;6.80;78.90;;;;;;5074483;28;20064;-60
2021/04/13 07:54:48;;;;;;;6.82;1.55;;;6.80;79.40;;;;;;5073104;28;20135;-60
2021/04/13 07:57:40;;;;;;;2.67;0.95;;;6.90;78.60;;;;;;5073306;28;20055;-60
2021/04/13 08:00:12;;;;;;;16.75;1.83;;;6.90;78.30;;;;;;5060123;28;20418;-60
2021/04/13 08:02:39;;;;;;;2.72;1.38;;;6.90;77.90;;;;;;5073743;28;20390;-60
2021/04/13 08:05:08;;;;;;;10.75;1.48;;;6.90;77.80;;;;;;5074055;28;20031;-60
2021/04/13 08:07:38;;;;;;;9.60;1.55;;;6.90;77.50;;;;;;5074210;28;20028;-60
2021/04/13 08:10:13;;;;;;;7.95;1.30;;;6.90;78.00;;;;;;5067452;28;20039;-60
2021/04/13 08:13:07;;;;;;;9.85;2.08;;;6.90;77.90;;;;;;5066163;28;20037;-60
2021/04/13 08:15:45;;;;;;;6.53;1.65;;;7.00;78.30;;;;;;5071073;28;20059;-60
2021/04/13 08:18:27;;;;;;;7.28;1.38;;;7.00;78.50;;;;;;5072969;28;20024;-60
2021/04/13 08:20:56;;;;;;;12.52;1.92;;;7.00;79.00;;;;;;5073619;28;20443;-60
2021/04/13 08:23:25;;;;;;;6.60;1.27;;;7.00;79.30;;;;;;5073869;28;20024;-60
2021/04/13 08:25:56;;;;;;;7.53;1.52;;;7.10;79.00;;;;;;5073492;28;20475;-60
2021/04/13 08:28:37;;;;;;;6.93;1.88;;;7.10;78.00;;;;;;5073672;28;20028;-60
2021/04/13 08:34:41;;;;;;;8.10;2.08;;;7.20;78.00;;;;;;5073473;28;20391;-60
2021/04/13 08:37:41;;;;;;;4.38;1.38;;;7.20;76.90;;;;;;5073360;28;20037;-60
2021/04/13 08:40:32;;;;;;;2.45;0.95;;;7.20;76.60;;;;;;5064159;28;20063;-60
2021/04/13 08:43:11;;;;;;;3.60;1.00;;;7.30;76.80;;;;;;5073418;28;20032;-60
2021/04/13 08:45:40;;;;;;;4.75;1.40;;;7.30;77.80;;;;;;5072471;28;20403;-60
2021/04/13 08:48:27;;;;;;;4.13;1.02;;;7.30;78.20;;;;;;5059286;28;20028;-60
2021/04/13 08:51:31;;;;;;;3.13;0.85;;;7.40;78.40;;;;;;5073394;28;20033;-60
2021/04/13 08:54:19;;;;;;;3.88;1.10;;;7.40;78.50;;;;;;5072931;28;20040;-60
2021/04/13 08:56:57;;;;;;;2.42;1.10;;;7.40;77.80;;;;;;5060427;28;20043;-60
2021/04/13 08:59:44;;;;;;;5.25;1.25;;;7.40;76.40;;;;;;5058031;28;20196;-60
2021/04/13 09:02:10;;;;;;;6.22;0.98;;;7.50;76.60;;;;;;5072998;28;20392;-60
2021/04/13 09:04:36;;;;;;;12.25;1.75;;;7.50;75.80;;;;;;5073195;28;20028;-60
2021/04/13 09:07:22;;;;;;;6.88;1.17;;;7.60;76.20;;;;;;5072552;28;20044;-60
2021/04/13 09:10:15;;;;;;;3.97;1.02;;;7.70;75.80;;;;;;5072795;28;20056;-60
2021/04/13 09:12:43;;;;;;;7.63;1.67;;;7.70;76.90;;;;;;5072387;28;20063;-61
2021/04/13 09:15:09;;;;;;;5.38;0.75;;;7.70;77.00;;;;;;5073077;28;20047;-60
2021/04/13 09:18:05;;;;;;;4.68;0.70;;;7.80;76.70;;;;;;5072505;28;20041;-60
2021/04/13 09:20:40;;;;;;;7.50;1.35;;;7.80;77.30;;;;;;5069506;28;20036;-60
2021/04/13 09:23:11;;;;;;;4.25;1.05;;;7.90;77.70;;;;;;5072877;28;20103;-60
2021/04/13 09:26:19;;;;;;;6.25;1.25;;;7.90;77.70;;;;;;5072519;28;20078;-59
2021/04/13 09:28:57;;;;;;;5.40;1.42;;;8.00;77.30;;;;;;5071212;28;20040;-60
2021/04/13 09:31:43;;;;;;;5.18;1.45;;;8.00;76.60;;;;;;5054670;28;20491;-60
2021/04/13 09:34:25;;;;;;;11.00;1.38;;;8.10;75.50;;;;;;5071913;28;20388;-60
2021/04/13 09:37:29;;;;;;;8.02;1.65;;;8.10;75.10;;;;;;5072784;28;20119;-60
2021/04/13 09:40:30;;;;;;;4.45;1.17;;;8.20;74.90;;;;;;5061158;28;20058;-60
2021/04/13 09:43:11;;;;;;;1.35;0.68;;;8.20;73.20;;;;;;5053893;28;20495;-60
2021/04/13 09:46:18;;;;;;;3.45;1.25;;;8.20;74.70;;;;;;5072609;28;20036;-60
2021/04/13 09:49:21;;;;;;;3.00;0.80;;;8.30;74.30;;;;;;5063076;28;20490;-60
2021/04/13 09:51:50;;;;;;;1.23;0.80;;;8.30;75.60;;;;;;5060585;28;20043;-60
2021/04/13 09:54:43;;;;;;;2.78;0.98;;;8.30;74.40;;;;;;5072023;28;20031;-63
2021/04/13 09:57:17;;;;;;;3.23;0.57;;;8.40;74.20;;;;;;5061958;28;20053;-60
2021/04/13 10:00:22;;;;;;;3.10;1.02;;;8.40;75.30;;;;;;5062114;28;20043;-61
2021/04/13 10:03:10;;;;;;;0.98;0.65;;;8.40;71.50;;;;;;5071326;28;20032;-60
2021/04/13 10:05:44;;;;;;;8.35;1.67;;;8.50;71.00;;;;;;5062490;28;20028;-60
2021/04/13 10:08:31;;;;;;;12.32;2.47;;;8.60;71.90;;;;;;5065171;28;20063;-61
2021/04/13 10:11:19;;;;;;;5.35;1.27;;;8.60;71.60;;;;;;5071303;28;20055;-61
2021/04/13 10:14:18;;;;;;;9.75;1.40;;;8.70;71.00;;;;;;5064655;28;20035;-62
2021/04/13 10:17:20;;;;;;;2.63;1.00;;;8.80;70.80;;;;;;5069214;28;20036;-62
2021/04/13 10:20:02;;;;;;;8.10;1.70;;;8.80;71.20;;;;;;5071892;28;20024;-61
2021/04/13 10:22:58;;;;;;;8.75;1.55;;;8.80;70.10;;;;;;5070770;28;20067;-61
2021/04/13 10:25:38;;;;;;;4.72;0.73;;;8.80;68.40;;;;;;5056902;28;20072;-62
2021/04/13 10:28:56;;;;;;;5.50;1.13;;;8.90;71.40;;;;;;5072035;28;20090;-61
2021/04/13 10:31:54;;;;;;;1.02;0.52;;;8.90;70.90;;;;;;5036065;28;20119;-60
2021/04/13 10:34:32;;;;;;;3.72;0.68;;;9.00;72.90;;;;;;5071712;28;20031;-60
2021/04/13 10:37:35;;;;;;;1.30;0.60;;;9.00;71.90;;;;;;5071879;28;20044;-60
2021/04/13 10:40:19;;;;;;;3.40;1.08;;;9.10;70.50;;;;;;5062854;28;20395;-60
2021/04/13 10:43:18;;;;;;;7.75;1.38;;;9.10;68.80;;;;;;5070443;28;20024;-60
2021/04/13 10:46:09;;;;;;;7.00;1.13;;;9.10;71.10;;;;;;5070657;28;20021;-60
2021/04/13 10:48:52;;;;;;;4.88;1.40;;;9.20;70.50;;;;;;5069033;28;20413;-60
2021/04/13 10:51:41;;;;;;;2.20;0.82;;;9.20;68.90;;;;;;5070699;28;20020;-60
2021/04/13 10:54:06;;;;;;;5.60;0.90;;;9.20;69.50;;;;;;5071705;28;20054;-60
2021/04/13 10:56:53;;;;;;;4.70;0.93;;;9.30;70.30;;;;;;5075109;28;20040;-60
2021/04/13 10:59:31;;;;;;;2.42;1.10;;;9.30;68.70;;;;;;5074627;28;20059;-60
2021/04/13 11:02:17;;;;;;;5.63;1.10;;;9.30;70.90;;;;;;5075342;28;20809;-60
2021/04/13 11:05:18;;;;;;;3.67;0.90;;;9.30;70.80;;;;;;5075082;28;20039;-60
2021/04/13 11:08:11;;;;;;;3.28;0.90;;;9.40;66.90;;;;;;5075146;28;20036;-60
2021/04/13 11:11:09;;;;;;;1.63;0.77;;;9.40;68.80;;;;;;5066584;28;20060;-60
2021/04/13 11:13:59;;;;;;;7.78;1.50;;;9.50;70.10;;;;;;5074145;28;20526;-60
2021/04/13 11:16:43;;;;;;;10.63;1.25;;;9.50;70.00;;;;;;5074680;28;20032;-60
2021/04/13 11:19:12;;;;;;;3.20;0.43;;;9.50;70.30;;;;;;5074963;28;20028;-60
2021/04/13 11:22:15;;;;;;;4.70;1.10;;;9.60;69.80;;;;;;5073992;28;20036;-60
2021/04/13 11:25:18;;;;;;;17.00;1.67;;;9.70;69.60;;;;;;5073841;28;20480;-60
2021/04/13 11:28:08;;;;;;;7.32;1.58;;;9.70;68.90;;;;;;5067842;28;20032;-60
2021/04/13 11:30:45;;;;;;;12.88;1.60;;;9.70;70.20;;;;;;5067285;28;20021;-60
2021/04/13 11:33:25;;;;;;;5.18;0.73;;;9.70;70.10;;;;;;5074739;28;20024;-60
2021/04/13 11:36:14;;;;;;;1.90;0.57;;;9.80;69.90;;;;;;5074449;28;20044;-60
2021/04/13 11:38:49;;;;;;;4.75;1.42;;;9.80;68.50;;;;;;5074756;28;20028;-60
2021/04/13 11:41:47;;;;;;;2.72;0.95;;;9.90;69.00;;;;;;5073726;28;20079;-60
2021/04/13 11:44:41;;;;;;;6.63;1.02;;;9.90;68.70;;;;;;5053258;28;20025;-60
2021/04/13 11:47:44;;;;;;;6.32;1.20;;;9.90;67.10;;;;;;5072123;28;20045;-60
2021/04/13 11:50:41;;;;;;;2.75;0.80;;;10.00;66.80;;;;;;5072128;28;20032;-60
2021/04/13 11:53:08;;;;;;;5.43;1.40;;;10.00;67.40;;;;;;5065688;28;20047;-59
2021/04/13 11:55:45;;;;;;;5.13;1.63;;;10.00;67.40;;;;;;5073170;28;20040;-61
2021/04/13 11:58:24;;;;;;;9.00;1.48;;;10.10;64.90;;;;;;5073693;28;20387;-61
2021/04/13 12:01:17;;;;;;;5.15;0.88;;;10.00;64.90;;;;;;5073688;28;20087;-61
2021/04/13 12:04:03;;;;;;;11.35;1.08;;;10.10;66.90;;;;;;5069588;28;20467;-60
2021/04/13 12:06:58;;;;;;;4.53;1.25;;;10.10;69.70;;;;;;5059103;28;20368;-60
2021/04/13 12:10:02;;;;;;;5.53;0.90;;;10.20;65.80;;;;;;5066558;28;20104;-60
2021/04/13 12:12:33;;;;;;;5.25;1.55;;;10.10;66.10;;;;;;5072927;28;20033;-60
2021/04/13 12:15:02;;;;;;;4.15;0.85;;;10.20;65.30;;;;;;5072700;28;20051;-60
2021/04/13 12:17:46;;;;;;;5.35;1.00;;;10.20;66.70;;;;;;5072020;28;20036;-67
2021/04/13 12:20:21;;;;;;;6.65;1.08;;;10.30;64.50;;;;;;5071201;28;20039;-60
2021/04/13 12:22:47;;;;;;;5.45;1.50;;;10.30;64.30;;;;;;5070611;28;20758;-63
2021/04/13 12:25:37;;;;;;;7.22;1.13;;;10.30;64.10;;;;;;5070304;28;20071;-60
2021/04/13 12:28:26;;;;;;;9.07;1.20;;;10.30;63.80;;;;;;5054797;28;20507;-59
2021/04/13 12:31:03;;;;;;;5.10;0.90;;;10.40;64.30;;;;;;5051574;28;20558;-62
2021/04/13 12:33:29;;;;;;;6.45;1.60;;;10.40;66.70;;;;;;5052237;28;20066;-61
2021/04/13 12:35:56;;;;;;;4.00;0.90;;;10.50;67.50;;;;;;5050841;28;20041;-63
2021/04/13 12:38:52;;;;;;;2.80;1.25;;;10.50;68.60;;;;;;5062248;28;20510;-60
2021/04/13 12:41:29;;;;;;;11.93;1.45;;;10.60;69.80;;;;;;5049654;28;20459;-60
2021/04/13 12:43:59;;;;;;;9.65;1.73;;;10.60;66.60;;;;;;5051934;28;20637;-60
2021/04/13 12:46:38;;;;;;;5.40;0.90;;;10.60;68.00;;;;;;5059232;28;20439;-60
2021/04/13 12:49:17;;;;;;;7.93;1.95;;;10.60;65.80;;;;;;5059719;28;20490;-60
2021/04/13 12:52:05;;;;;;;3.33;0.90;;;10.60;65.70;;;;;;5055781;28;20083;-60
2021/04/13 12:54:37;;;;;;;1.70;0.70;;;10.60;65.30;;;;;;5057094;28;20407;-60
2021/04/13 12:57:11;;;;;;;0.40;0.40;;;10.60;65.40;;;;;;5061679;28;20060;-60
2021/04/13 12:59:37;;;;;;;4.55;2.33;;;10.70;69.80;;;;;;5058777;28;20086;-60
2021/04/13 13:02:05;;;;;;;6.32;1.02;;;10.60;68.80;;;;;;5059258;28;20025;-60
2021/04/13 13:04:37;;;;;;;2.70;0.70;;;10.70;68.90;;;;;;5055362;28;20032;-61
2021/04/13 13:07:05;;;;;;;4.65;1.00;;;10.70;68.50;;;;;;5054338;28;20047;-60
2021/04/13 13:09:40;;;;;;;1.17;0.60;;;10.70;69.30;;;;;;5055870;28;20143;-60
2021/04/13 13:12:21;;;;;;;4.55;0.82;;;10.80;68.60;;;;;;5058236;28;20401;-61
2021/04/13 13:14:50;;;;;;;4.55;1.20;;;10.90;66.50;;;;;;5053978;28;20041;-63
2021/04/13 13:17:18;;;;;;;1.02;0.47;;;10.90;67.50;;;;;;5057470;28;20055;-63
2021/04/13 13:19:47;;;;;;;1.13;0.52;;;11.00;68.80;;;;;;5052355;28;20031;-63
2021/04/13 13:22:21;;;;;;;4.53;0.77;;;11.00;66.80;;;;;;5057772;28;20440;-63
2021/04/13 13:24:50;;;;;;;3.22;0.90;;;11.10;65.00;;;;;;5051552;28;20729;-63
2021/04/13 13:27:33;;;;;;;2.25;0.70;;;11.10;66.70;;;;;;5050362;28;20059;-62
2021/04/13 13:30:03;;;;;;;0.45;0.22;;;11.20;66.40;;;;;;5051161;28;20024;-62
2021/04/13 13:32:29;;;;;;;3.83;0.95;;;11.20;67.00;;;;;;5051210;28;20037;-63
2021/04/13 13:34:58;;;;;;;2.25;0.57;;;11.30;67.70;;;;;;5050494;28;20123;-73
2021/04/13 13:37:55;;;;;;;12.38;1.23;;;11.40;68.30;;;;;;5057195;28;20035;-64
2021/04/13 13:40:38;;;;;;;2.97;0.93;;;11.40;64.60;;;;;;5067472;28;20029;-63
2021/04/13 13:43:07;;;;;;;7.53;2.03;;;11.50;60.50;;;;;;5053026;28;20025;-63
2021/04/13 13:45:46;;;;;;;6.32;1.33;;;11.50;60.30;;;;;;5069092;28;20529;-60
2021/04/13 13:48:24;;;;;;;4.75;1.00;;;11.50;59.10;;;;;;5056234;28;20052;-61